logo
Search for airport 
image banner adimage banner adimage banner ad
image banner ad

LFH110 - Istres S.E.P.

Located in , France

ICAO - , IATA -

Data provided by Airmate  

General information

Coordinates: N43°32'38" E4°57'7"
Elevation is 72 feet MSL.
Magnetic variation is 1.87° East
View others Airports in Provence-Alpes-Côte-d'Azur

Operational data

Special qualification required
Current time UTC:
Current local time:
Weather at : LFMI - Istres Le Tube ( 3 km )
METAR: LFMI 231830Z AUTO 35017KT CAVOK 31/16 Q1015 TEMPO 35020G32KT
TAF: TAF LFMI 231400Z 2315/2415 35015KT CAVOK TX34/2315Z TN24/2405Z TEMPO 2315/2403 35020G32KT BECMG 2406/2409 34020G34KT
View NOTAMs / SUP AIP / TFR affecting this airport [VIEW]
Communications frequencies: [VIEW]

Runways:

Airport contact information

Address: France

Satellite view of LFH110